sensor_id;sensor_type;location;lat;lon;timestamp;pressure;altitude;pressure_sealevel;temperature;humidity
13011;BME280;6786;57.632;11.962;2023-01-31T00:01:59;99869.63;;;18.57;36.36
13011;BME280;6786;57.632;11.962;2023-01-31T00:04:27;99932.56;;;18.96;36.62
13011;BME280;6786;57.632;11.962;2023-01-31T00:06:56;99924.81;;;18.93;36.60
13011;BME280;6786;57.632;11.962;2023-01-31T00:09:24;99932.72;;;18.94;36.39
13011;BME280;6786;57.632;11.962;2023-01-31T00:11:53;99924.53;;;18.96;36.44
13011;BME280;6786;57.632;11.962;2023-01-31T00:14:21;99928.22;;;18.95;36.45
13011;BME280;6786;57.632;11.962;2023-01-31T00:16:50;99925.53;;;18.95;36.52
13011;BME280;6786;57.632;11.962;2023-01-31T00:19:19;99928.22;;;18.95;36.44
13011;BME280;6786;57.632;11.962;2023-01-31T00:21:47;99929.06;;;18.95;36.45
13011;BME280;6786;57.632;11.962;2023-01-31T00:24:15;99922.84;;;18.95;36.40
13011;BME280;6786;57.632;11.962;2023-01-31T00:26:43;99929.88;;;18.96;36.38
13011;BME280;6786;57.632;11.962;2023-01-31T00:29:13;99928.22;;;18.95;36.41
13011;BME280;6786;57.632;11.962;2023-01-31T00:31:41;99928.22;;;18.95;36.36
13011;BME280;6786;57.632;11.962;2023-01-31T00:34:10;99928.22;;;18.95;36.43
13011;BME280;6786;57.632;11.962;2023-01-31T00:36:38;99927.16;;;18.88;36.40
13011;BME280;6786;57.632;11.962;2023-01-31T00:39:07;99945.13;;;18.95;36.31
13011;BME280;6786;57.632;11.962;2023-01-31T00:41:37;99940.88;;;18.93;36.41
13011;BME280;6786;57.632;11.962;2023-01-31T00:44:05;99945.94;;;18.96;36.47
13011;BME280;6786;57.632;11.962;2023-01-31T00:46:35;99967.38;;;18.96;36.43
13011;BME280;6786;57.632;11.962;2023-01-31T00:49:04;99960.34;;;18.95;36.36
13011;BME280;6786;57.632;11.962;2023-01-31T00:51:32;99957.66;;;18.95;36.30
13011;BME280;6786;57.632;11.962;2023-01-31T00:54:01;99960.34;;;18.95;36.39
13011;BME280;6786;57.632;11.962;2023-01-31T00:56:29;99957.66;;;18.95;36.31
13011;BME280;6786;57.632;11.962;2023-01-31T00:58:57;99971.03;;;18.95;36.42
13011;BME280;6786;57.632;11.962;2023-01-31T01:01:27;99972.72;;;18.96;36.35
13011;BME280;6786;57.632;11.962;2023-01-31T01:03:57;99921.75;;;18.53;36.40
13011;BME280;6786;57.632;11.962;2023-01-31T01:06:26;99971.91;;;18.95;36.24
13011;BME280;6786;57.632;11.962;2023-01-31T01:08:55;99908.00;;;18.48;36.46
13011;BME280;6786;57.632;11.962;2023-01-31T01:11:26;99966.53;;;18.95;36.32
13011;BME280;6786;57.632;11.962;2023-01-31T01:13:55;99967.38;;;18.96;36.29
13011;BME280;6786;57.632;11.962;2023-01-31T01:16:26;99935.69;;;18.74;36.23
13011;BME280;6786;57.632;11.962;2023-01-31T01:18:54;99967.38;;;18.96;36.38
13011;BME280;6786;57.632;11.962;2023-01-31T01:21:26;99962.00;;;18.96;36.17
13011;BME280;6786;57.632;11.962;2023-01-31T01:23:56;99959.34;;;18.96;36.27
13011;BME280;6786;57.632;11.962;2023-01-31T01:26:26;99911.53;;;18.66;36.07
13011;BME280;6786;57.632;11.962;2023-01-31T01:28:55;99970.91;;;18.96;36.29
13011;BME280;6786;57.632;11.962;2023-01-31T01:31:25;99961.19;;;18.95;36.31
13011;BME280;6786;57.632;11.962;2023-01-31T01:33:57;99972.72;;;18.96;36.19
13011;BME280;6786;57.632;11.962;2023-01-31T01:36:27;99969.22;;;18.95;36.14
13011;BME280;6786;57.632;11.962;2023-01-31T01:38:55;99976.41;;;18.95;36.15
13011;BME280;6786;57.632;11.962;2023-01-31T01:41:23;99979.06;;;18.95;36.20
13011;BME280;6786;57.632;11.962;2023-01-31T01:43:53;99976.41;;;18.95;36.24
13011;BME280;6786;57.632;11.962;2023-01-31T01:46:25;99981.75;;;18.95;36.21
13011;BME280;6786;57.632;11.962;2023-01-31T01:48:57;99988.13;;;18.94;36.34
13011;BME280;6786;57.632;11.962;2023-01-31T01:51:31;99981.75;;;18.95;36.04
13011;BME280;6786;57.632;11.962;2023-01-31T01:54:04;99981.75;;;18.95;36.29
13011;BME280;6786;57.632;11.962;2023-01-31T01:56:36;99983.72;;;18.93;36.30
13011;BME280;6786;57.632;11.962;2023-01-31T01:59:08;99980.09;;;18.94;36.18
13011;BME280;6786;57.632;11.962;2023-01-31T02:01:37;99938.91;;;18.60;36.13
13011;BME280;6786;57.632;11.962;2023-01-31T02:04:08;99990.78;;;18.94;36.19
13011;BME280;6786;57.632;11.962;2023-01-31T02:06:40;100005.84;;;18.95;36.17
13011;BME280;6786;57.632;11.962;2023-01-31T02:09:12;100009.38;;;18.95;35.99
13011;BME280;6786;57.632;11.962;2023-01-31T02:11:43;100010.22;;;18.96;36.05
13011;BME280;6786;57.632;11.962;2023-01-31T02:14:11;100013.88;;;18.95;36.12
13011;BME280;6786;57.632;11.962;2023-01-31T02:16:40;100006.16;;;18.92;36.08
13011;BME280;6786;57.632;11.962;2023-01-31T02:19:17;100013.88;;;18.95;36.07
13011;BME280;6786;57.632;11.962;2023-01-31T02:22:15;100020.91;;;18.96;35.83
13011;BME280;6786;57.632;11.962;2023-01-31T02:31:47;99998.97;;;18.92;35.76
13011;BME280;6786;57.632;11.962;2023-01-31T02:34:26;99918.16;;;18.35;36.13
13011;BME280;6786;57.632;11.962;2023-01-31T02:37:12;100012.53;;;18.91;36.01
13011;BME280;6786;57.632;11.962;2023-01-31T02:39:49;100013.63;;;18.88;36.15
13011;BME280;6786;57.632;11.962;2023-01-31T02:42:25;100004.47;;;18.91;36.09
13011;BME280;6786;57.632;11.962;2023-01-31T02:45:03;100001.81;;;18.91;36.12
13011;BME280;6786;57.632;11.962;2023-01-31T02:47:42;100002.63;;;18.91;35.83
13011;BME280;6786;57.632;11.962;2023-01-31T02:50:23;100003.47;;;18.92;35.98
13011;BME280;6786;57.632;11.962;2023-01-31T02:52:57;99992.78;;;18.92;35.99
13011;BME280;6786;57.632;11.962;2023-01-31T02:55:31;99905.47;;;18.46;36.09
13011;BME280;6786;57.632;11.962;2023-01-31T02:58:20;99992.78;;;18.92;36.28
13011;BME280;6786;57.632;11.962;2023-01-31T03:00:49;99992.78;;;18.92;36.01
13011;BME280;6786;57.632;11.962;2023-01-31T03:03:24;99983.72;;;18.93;36.20
13011;BME280;6786;57.632;11.962;2023-01-31T03:08:58;99973.19;;;18.91;36.17
13011;BME280;6786;57.632;11.962;2023-01-31T03:11:35;99982.06;;;18.92;36.02
13011;BME280;6786;57.632;11.962;2023-01-31T03:14:12;99979.38;;;18.92;36.12
13011;BME280;6786;57.632;11.962;2023-01-31T03:16:50;99906.84;;;18.50;36.16
13011;BME280;6786;57.632;11.962;2023-01-31T03:19:41;99977.00;;;18.89;36.18
13011;BME280;6786;57.632;11.962;2023-01-31T03:22:17;99982.06;;;18.92;36.18
13011;BME280;6786;57.632;11.962;2023-01-31T03:24:50;99973.03;;;18.93;36.07
13011;BME280;6786;57.632;11.962;2023-01-31T03:27:19;99977.56;;;18.92;36.13
13011;BME280;6786;57.632;11.962;2023-01-31T03:29:48;99976.72;;;18.92;36.08
13011;BME280;6786;57.632;11.962;2023-01-31T03:32:19;99971.34;;;18.92;36.07
13011;BME280;6786;57.632;11.962;2023-01-31T03:34:51;99966.00;;;18.92;36.19
13011;BME280;6786;57.632;11.962;2023-01-31T03:37:27;99970.34;;;18.93;36.11
13011;BME280;6786;57.632;11.962;2023-01-31T03:40:00;99879.34;;;18.31;36.03
13011;BME280;6786;57.632;11.962;2023-01-31T03:42:38;99967.66;;;18.93;36.05
13011;BME280;6786;57.632;11.962;2023-01-31T03:45:11;99977.56;;;18.92;36.09
13011;BME280;6786;57.632;11.962;2023-01-31T03:47:44;99970.50;;;18.91;36.05
13011;BME280;6786;57.632;11.962;2023-01-31T03:50:16;99967.66;;;18.93;36.12
13011;BME280;6786;57.632;11.962;2023-01-31T03:52:51;99966.84;;;18.92;35.98
13011;BME280;6786;57.632;11.962;2023-01-31T03:55:24;99967.66;;;18.93;36.06
13011;BME280;6786;57.632;11.962;2023-01-31T03:57:54;99967.66;;;18.93;36.00
13011;BME280;6786;57.632;11.962;2023-01-31T04:00:25;99965.00;;;18.93;36.09
13011;BME280;6786;57.632;11.962;2023-01-31T04:02:59;99984.59;;;18.93;36.02
13011;BME280;6786;57.632;11.962;2023-01-31T04:05:32;99944.72;;;18.73;36.08
13011;BME280;6786;57.632;11.962;2023-01-31T04:08:01;99941.03;;;18.74;36.09
13011;BME280;6786;57.632;11.962;2023-01-31T04:10:30;99974.72;;;18.94;35.98
13011;BME280;6786;57.632;11.962;2023-01-31T04:12:58;99964.03;;;18.94;35.98
13011;BME280;6786;57.632;11.962;2023-01-31T04:15:27;99976.41;;;18.95;36.02
13011;BME280;6786;57.632;11.962;2023-01-31T04:17:55;99947.78;;;18.78;35.93
13011;BME280;6786;57.632;11.962;2023-01-31T04:20:23;99974.72;;;18.94;36.02
13011;BME280;6786;57.632;11.962;2023-01-31T04:22:52;99973.03;;;18.93;35.97
13011;BME280;6786;57.632;11.962;2023-01-31T04:25:21;99968.53;;;18.93;36.04
13011;BME280;6786;57.632;11.962;2023-01-31T04:27:49;99951.69;;;18.83;35.90
13011;BME280;6786;57.632;11.962;2023-01-31T04:30:17;99959.47;;;18.94;35.90
13011;BME280;6786;57.632;11.962;2023-01-31T04:32:46;99958.66;;;18.94;36.01
13011;BME280;6786;57.632;11.962;2023-01-31T04:35:14;99964.84;;;18.94;36.08
13011;BME280;6786;57.632;11.962;2023-01-31T04:37:42;99971.03;;;18.95;36.08
13011;BME280;6786;57.632;11.962;2023-01-31T04:40:11;99971.03;;;18.95;35.96
13011;BME280;6786;57.632;11.962;2023-01-31T04:42:41;99965.69;;;18.95;36.05
13011;BME280;6786;57.632;11.962;2023-01-31T04:45:10;99954.13;;;18.94;36.01
13011;BME280;6786;57.632;11.962;2023-01-31T04:47:38;99954.97;;;18.95;36.00
13011;BME280;6786;57.632;11.962;2023-01-31T04:50:07;99946.09;;;18.94;36.03
13011;BME280;6786;57.632;11.962;2023-01-31T04:52:35;99941.75;;;18.93;36.05
13011;BME280;6786;57.632;11.962;2023-01-31T04:55:05;99938.38;;;18.91;36.02
13011;BME280;6786;57.632;11.962;2023-01-31T04:57:33;99939.91;;;18.94;36.04
13011;BME280;6786;57.632;11.962;2023-01-31T05:00:04;99926.03;;;18.81;35.94
13011;BME280;6786;57.632;11.962;2023-01-31T05:02:33;99931.88;;;18.94;36.04
13011;BME280;6786;57.632;11.962;2023-01-31T05:05:02;99930.19;;;18.93;36.00
13011;BME280;6786;57.632;11.962;2023-01-31T05:07:30;99926.53;;;18.94;35.95
13011;BME280;6786;57.632;11.962;2023-01-31T05:09:58;99937.25;;;18.94;35.91
13011;BME280;6786;57.632;11.962;2023-01-31T05:12:26;99906.78;;;18.77;35.89
13011;BME280;6786;57.632;11.962;2023-01-31T05:14:54;99933.56;;;18.95;35.87
13011;BME280;6786;57.632;11.962;2023-01-31T05:17:24;99916.66;;;18.94;35.92
13011;BME280;6786;57.632;11.962;2023-01-31T05:19:55;99735.84;;;17.87;35.92
13011;BME280;6786;57.632;11.962;2023-01-31T05:22:24;99917.50;;;18.95;35.96
13011;BME280;6786;57.632;11.962;2023-01-31T05:24:52;99916.66;;;18.94;35.74
13011;BME280;6786;57.632;11.962;2023-01-31T05:27:23;99914.81;;;18.95;36.02
13011;BME280;6786;57.632;11.962;2023-01-31T05:29:52;99906.78;;;18.95;35.90
13011;BME280;6786;57.632;11.962;2023-01-31T05:32:20;99897.06;;;18.94;35.92
13011;BME280;6786;57.632;11.962;2023-01-31T05:34:49;99908.59;;;18.94;35.92
13011;BME280;6786;57.632;11.962;2023-01-31T05:37:18;99894.41;;;18.94;35.92
13011;BME280;6786;57.632;11.962;2023-01-31T05:39:46;99830.47;;;18.56;35.92
13011;BME280;6786;57.632;11.962;2023-01-31T05:42:14;99892.69;;;18.93;35.93
13011;BME280;6786;57.632;11.962;2023-01-31T05:44:42;99896.06;;;18.95;35.81
13011;BME280;6786;57.632;11.962;2023-01-31T05:47:10;99896.06;;;18.95;35.92
13011;BME280;6786;57.632;11.962;2023-01-31T05:49:38;99907.63;;;18.95;35.89
13011;BME280;6786;57.632;11.962;2023-01-31T05:52:08;99898.91;;;18.93;35.93
13011;BME280;6786;57.632;11.962;2023-01-31T05:54:36;99899.75;;;18.94;35.83
13011;BME280;6786;57.632;11.962;2023-01-31T05:57:04;99905.13;;;18.94;35.92
13011;BME280;6786;57.632;11.962;2023-01-31T05:59:33;99894.41;;;18.94;35.96
13011;BME280;6786;57.632;11.962;2023-01-31T06:02:01;99894.41;;;18.94;35.90
13011;BME280;6786;57.632;11.962;2023-01-31T06:04:29;99894.41;;;18.94;35.95
13011;BME280;6786;57.632;11.962;2023-01-31T06:06:57;99901.44;;;18.95;35.97
13011;BME280;6786;57.632;11.962;2023-01-31T06:09:27;99889.88;;;18.94;35.83
13011;BME280;6786;57.632;11.962;2023-01-31T06:11:55;99899.06;;;18.92;35.94
13011;BME280;6786;57.632;11.962;2023-01-31T06:14:24;99736.91;;;17.94;35.77
13011;BME280;6786;57.632;11.962;2023-01-31T06:16:52;99764.66;;;18.10;35.82
13011;BME280;6786;57.632;11.962;2023-01-31T06:19:20;99889.03;;;18.94;35.88
13011;BME280;6786;57.632;11.962;2023-01-31T06:21:51;99889.88;;;18.94;35.93
13011;BME280;6786;57.632;11.962;2023-01-31T06:24:19;99878.19;;;18.95;35.94
13011;BME280;6786;57.632;11.962;2023-01-31T06:26:48;99880.00;;;18.95;35.84
13011;BME280;6786;57.632;11.962;2023-01-31T06:29:17;99863.41;;;18.91;35.87
13011;BME280;6786;57.632;11.962;2023-01-31T06:31:45;99868.59;;;18.93;35.91
13011;BME280;6786;57.632;11.962;2023-01-31T06:34:13;99778.81;;;18.38;35.64
13011;BME280;6786;57.632;11.962;2023-01-31T06:36:41;99865.75;;;18.94;35.89
13011;BME280;6786;57.632;11.962;2023-01-31T06:39:10;99856.91;;;18.94;35.75
13011;BME280;6786;57.632;11.962;2023-01-31T06:41:38;99673.66;;;17.85;35.78
13011;BME280;6786;57.632;11.962;2023-01-31T06:44:08;99828.00;;;18.80;35.85
13011;BME280;6786;57.632;11.962;2023-01-31T06:46:36;99851.56;;;18.94;35.81
13011;BME280;6786;57.632;11.962;2023-01-31T06:49:05;99851.56;;;18.94;35.87
13011;BME280;6786;57.632;11.962;2023-01-31T06:51:33;99849.69;;;18.94;35.89
13011;BME280;6786;57.632;11.962;2023-01-31T06:54:01;99850.56;;;18.95;35.79
13011;BME280;6786;57.632;11.962;2023-01-31T06:56:29;99842.53;;;18.95;35.76
13011;BME280;6786;57.632;11.962;2023-01-31T06:58:58;99837.16;;;18.95;35.79
13011;BME280;6786;57.632;11.962;2023-01-31T07:01:27;99832.66;;;18.95;35.84
13011;BME280;6786;57.632;11.962;2023-01-31T07:03:56;99842.53;;;18.95;35.74
13011;BME280;6786;57.632;11.962;2023-01-31T07:06:24;99849.69;;;18.94;35.83
13011;BME280;6786;57.632;11.962;2023-01-31T07:08:52;99842.84;;;18.92;35.71
13011;BME280;6786;57.632;11.962;2023-01-31T07:11:20;99852.38;;;18.94;35.87
13011;BME280;6786;57.632;11.962;2023-01-31T07:13:48;99763.84;;;18.45;35.78
13011;BME280;6786;57.632;11.962;2023-01-31T07:16:16;99846.22;;;18.94;35.82
13011;BME280;6786;57.632;11.962;2023-01-31T07:18:46;99840.84;;;18.94;35.82
13011;BME280;6786;57.632;11.962;2023-01-31T07:21:15;99822.72;;;18.88;35.91
13011;BME280;6786;57.632;11.962;2023-01-31T07:23:43;99828.13;;;18.96;35.88
13011;BME280;6786;57.632;11.962;2023-01-31T07:26:12;99830.13;;;18.94;35.73
13011;BME280;6786;57.632;11.962;2023-01-31T07:28:40;99833.63;;;18.94;35.78
13011;BME280;6786;57.632;11.962;2023-01-31T07:31:11;99819.44;;;18.94;35.74
13011;BME280;6786;57.632;11.962;2023-01-31T07:33:40;99816.75;;;18.94;35.75
13011;BME280;6786;57.632;11.962;2023-01-31T07:36:12;99799.25;;;18.82;35.73
13011;BME280;6786;57.632;11.962;2023-01-31T07:38:41;99827.47;;;18.94;35.72
13011;BME280;6786;57.632;11.962;2023-01-31T07:41:10;99817.72;;;18.93;35.70
13011;BME280;6786;57.632;11.962;2023-01-31T07:43:38;99816.06;;;18.92;35.70
13011;BME280;6786;57.632;11.962;2023-01-31T07:46:07;99820.25;;;18.94;35.76
13011;BME280;6786;57.632;11.962;2023-01-31T07:48:37;99815.75;;;18.95;35.73
13011;BME280;6786;57.632;11.962;2023-01-31T07:51:05;99808.72;;;18.94;35.81
13011;BME280;6786;57.632;11.962;2023-01-31T07:53:36;99803.38;;;18.94;35.83
13011;BME280;6786;57.632;11.962;2023-01-31T07:56:09;99799.69;;;18.95;35.71
13011;BME280;6786;57.632;11.962;2023-01-31T07:58:38;99793.47;;;18.94;35.66
13011;BME280;6786;57.632;11.962;2023-01-31T08:01:09;99770.47;;;18.84;35.82
13011;BME280;6786;57.632;11.962;2023-01-31T08:03:57;99651.19;;;18.13;35.81
13011;BME280;6786;57.632;11.962;2023-01-31T08:06:44;99765.88;;;18.94;35.78
13011;BME280;6786;57.632;11.962;2023-01-31T08:09:15;99757.69;;;18.95;35.67
13011;BME280;6786;57.632;11.962;2023-01-31T08:11:43;99767.56;;;18.95;35.80
13011;BME280;6786;57.632;11.962;2023-01-31T08:14:11;99760.53;;;18.94;35.79
13011;BME280;6786;57.632;11.962;2023-01-31T08:16:40;99758.81;;;18.93;35.69
13011;BME280;6786;57.632;11.962;2023-01-31T08:19:08;99755.16;;;18.94;35.78
13011;BME280;6786;57.632;11.962;2023-01-31T08:21:36;99705.41;;;18.58;35.71
13011;BME280;6786;57.632;11.962;2023-01-31T08:24:05;99745.28;;;18.94;35.67
13011;BME280;6786;57.632;11.962;2023-01-31T08:26:34;99746.13;;;18.95;35.81
13011;BME280;6786;57.632;11.962;2023-01-31T08:29:03;99711.91;;;18.81;35.74
13011;BME280;6786;57.632;11.962;2023-01-31T08:31:31;99734.56;;;18.94;35.73
13011;BME280;6786;57.632;11.962;2023-01-31T08:33:59;99644.25;;;18.45;35.70
13011;BME280;6786;57.632;11.962;2023-01-31T08:36:29;99719.34;;;18.95;35.70
13011;BME280;6786;57.632;11.962;2023-01-31T08:38:58;99724.72;;;18.95;35.76
13011;BME280;6786;57.632;11.962;2023-01-31T08:41:28;99714.00;;;18.95;35.78
13011;BME280;6786;57.632;11.962;2023-01-31T08:43:57;99706.97;;;18.94;35.71
13011;BME280;6786;57.632;11.962;2023-01-31T08:46:31;99639.13;;;18.52;35.60
13011;BME280;6786;57.632;11.962;2023-01-31T08:49:01;99697.94;;;18.95;35.75
13011;BME280;6786;57.632;11.962;2023-01-31T08:51:30;99686.53;;;18.93;35.77
13011;BME280;6786;57.632;11.962;2023-01-31T08:53:58;99689.91;;;18.95;35.69
13011;BME280;6786;57.632;11.962;2023-01-31T08:56:27;99687.53;;;18.92;35.88
13011;BME280;6786;57.632;11.962;2023-01-31T08:58:57;99681.88;;;18.95;35.69
13011;BME280;6786;57.632;11.962;2023-01-31T09:01:26;99676.50;;;18.95;35.66
13011;BME280;6786;57.632;11.962;2023-01-31T09:03:55;99667.78;;;18.93;35.75
13011;BME280;6786;57.632;11.962;2023-01-31T09:06:25;99676.50;;;18.95;35.88
13011;BME280;6786;57.632;11.962;2023-01-31T09:08:55;99579.19;;;18.37;35.48
13011;BME280;6786;57.632;11.962;2023-01-31T09:11:26;99671.16;;;18.95;35.74
13011;BME280;6786;57.632;11.962;2023-01-31T09:13:57;99668.47;;;18.95;35.72
13011;BME280;6786;57.632;11.962;2023-01-31T09:16:26;99671.16;;;18.95;35.68
13011;BME280;6786;57.632;11.962;2023-01-31T09:18:55;99658.78;;;18.94;35.76
13011;BME280;6786;57.632;11.962;2023-01-31T09:21:23;99643.03;;;18.91;35.74
13011;BME280;6786;57.632;11.962;2023-01-31T09:23:55;99560.84;;;18.42;35.72
13011;BME280;6786;57.632;11.962;2023-01-31T09:26:23;99642.72;;;18.94;35.80
13011;BME280;6786;57.632;11.962;2023-01-31T09:28:51;99637.38;;;18.94;35.87
13011;BME280;6786;57.632;11.962;2023-01-31T09:31:21;99626.66;;;18.94;35.72
13011;BME280;6786;57.632;11.962;2023-01-31T09:33:49;99626.66;;;18.94;35.73
13011;BME280;6786;57.632;11.962;2023-01-31T09:36:19;99645.72;;;18.91;35.97
13011;BME280;6786;57.632;11.962;2023-01-31T09:38:47;99616.25;;;18.91;35.83
13011;BME280;6786;57.632;11.962;2023-01-31T09:41:22;99555.19;;;18.53;35.71
13011;BME280;6786;57.632;11.962;2023-01-31T09:43:56;99610.91;;;18.91;35.74
13011;BME280;6786;57.632;11.962;2023-01-31T09:46:30;99603.53;;;18.93;35.77
13011;BME280;6786;57.632;11.962;2023-01-31T09:49:01;99606.91;;;18.95;35.86
13011;BME280;6786;57.632;11.962;2023-01-31T09:51:33;99598.88;;;18.95;35.88
13011;BME280;6786;57.632;11.962;2023-01-31T09:54:16;99499.47;;;18.40;35.82
13011;BME280;6786;57.632;11.962;2023-01-31T09:56:53;99568.34;;;18.80;35.84
13011;BME280;6786;57.632;11.962;2023-01-31T09:59:29;99582.97;;;18.93;35.77
13011;BME280;6786;57.632;11.962;2023-01-31T10:02:10;99572.59;;;18.90;35.85
13011;BME280;6786;57.632;11.962;2023-01-31T10:04:54;99400.44;;;17.91;36.06
13011;BME280;6786;57.632;11.962;2023-01-31T10:07:28;99557.03;;;18.94;35.85
13011;BME280;6786;57.632;11.962;2023-01-31T10:10:02;99539.28;;;18.93;35.86
13011;BME280;6786;57.632;11.962;2023-01-31T10:12:37;99528.56;;;18.93;35.84
13011;BME280;6786;57.632;11.962;2023-01-31T10:15:13;99523.22;;;18.93;35.83
13011;BME280;6786;57.632;11.962;2023-01-31T10:17:49;99517.88;;;18.93;35.69
13011;BME280;6786;57.632;11.962;2023-01-31T10:20:21;99523.22;;;18.93;35.84
13011;BME280;6786;57.632;11.962;2023-01-31T10:22:57;99516.03;;;18.93;35.87
13011;BME280;6786;57.632;11.962;2023-01-31T10:25:31;99508.84;;;18.94;35.96
13011;BME280;6786;57.632;11.962;2023-01-31T10:28:03;99515.19;;;18.93;35.81
13011;BME280;6786;57.632;11.962;2023-01-31T10:30:40;99514.22;;;18.94;35.88
13011;BME280;6786;57.632;11.962;2023-01-31T10:33:20;99499.13;;;18.85;35.87
13011;BME280;6786;57.632;11.962;2023-01-31T10:35:51;99512.50;;;18.93;35.94
13011;BME280;6786;57.632;11.962;2023-01-31T10:38:25;99507.16;;;18.93;35.99
13011;BME280;6786;57.632;11.962;2023-01-31T10:40:58;99512.50;;;18.93;35.93
13011;BME280;6786;57.632;11.962;2023-01-31T10:43:33;99422.06;;;18.39;35.86
13011;BME280;6786;57.632;11.962;2023-01-31T10:46:09;99496.44;;;18.93;35.96
13011;BME280;6786;57.632;11.962;2023-01-31T10:48:41;99507.16;;;18.93;35.95
13011;BME280;6786;57.632;11.962;2023-01-31T10:51:22;99499.13;;;18.93;35.67
13011;BME280;6786;57.632;11.962;2023-01-31T10:54:05;99490.13;;;18.94;35.95
13011;BME280;6786;57.632;11.962;2023-01-31T10:56:41;99405.69;;;18.42;35.91
13011;BME280;6786;57.632;11.962;2023-01-31T10:59:18;99491.09;;;18.93;36.05
13011;BME280;6786;57.632;11.962;2023-01-31T11:01:49;99492.78;;;18.94;35.93
13011;BME280;6786;57.632;11.962;2023-01-31T11:04:29;99484.06;;;18.92;35.90
13011;BME280;6786;57.632;11.962;2023-01-31T11:06:59;99455.94;;;18.80;36.11
13011;BME280;6786;57.632;11.962;2023-01-31T11:09:32;99477.72;;;18.93;35.95
13011;BME280;6786;57.632;11.962;2023-01-31T11:12:03;99392.25;;;18.34;36.10
13011;BME280;6786;57.632;11.962;2023-01-31T11:14:32;99476.72;;;18.94;36.01
13011;BME280;6786;57.632;11.962;2023-01-31T11:17:02;99289.66;;;17.85;35.95
13011;BME280;6786;57.632;11.962;2023-01-31T11:19:36;99453.63;;;18.93;36.04
13011;BME280;6786;57.632;11.962;2023-01-31T11:22:07;99444.59;;;18.94;35.98
13011;BME280;6786;57.632;11.962;2023-01-31T11:24:46;99434.22;;;18.91;36.02
13011;BME280;6786;57.632;11.962;2023-01-31T11:27:23;99439.25;;;18.94;36.04
13011;BME280;6786;57.632;11.962;2023-01-31T11:29:54;99420.50;;;18.94;36.01
13011;BME280;6786;57.632;11.962;2023-01-31T11:32:28;99420.50;;;18.94;35.98
13011;BME280;6786;57.632;11.962;2023-01-31T11:34:59;99417.84;;;18.94;35.99
13011;BME280;6786;57.632;11.962;2023-01-31T11:37:30;99408.78;;;18.95;36.01
13011;BME280;6786;57.632;11.962;2023-01-31T11:40:01;99324.78;;;18.48;36.17
13011;BME280;6786;57.632;11.962;2023-01-31T11:42:30;99385.69;;;18.94;36.04
13011;BME280;6786;57.632;11.962;2023-01-31T11:44:59;99375.00;;;18.94;36.21
13011;BME280;6786;57.632;11.962;2023-01-31T11:47:37;99355.56;;;18.92;36.25
13011;BME280;6786;57.632;11.962;2023-01-31T11:50:18;99347.38;;;18.93;36.10
13011;BME280;6786;57.632;11.962;2023-01-31T11:52:53;99334.50;;;18.89;36.16
13011;BME280;6786;57.632;11.962;2023-01-31T11:55:22;99306.72;;;18.82;36.03
13011;BME280;6786;57.632;11.962;2023-01-31T11:57:55;99314.41;;;18.93;36.26
13011;BME280;6786;57.632;11.962;2023-01-31T12:00:26;99274.94;;;18.79;36.18
13011;BME280;6786;57.632;11.962;2023-01-31T12:03:00;99277.78;;;18.93;36.10
13011;BME280;6786;57.632;11.962;2023-01-31T12:05:39;99278.63;;;18.94;36.12
13011;BME280;6786;57.632;11.962;2023-01-31T12:08:29;99251.84;;;18.94;36.08
13011;BME280;6786;57.632;11.962;2023-01-31T12:10:58;99240.13;;;18.95;36.16
13011;BME280;6786;57.632;11.962;2023-01-31T12:13:31;99230.44;;;18.94;36.13
13011;BME280;6786;57.632;11.962;2023-01-31T12:16:03;99122.28;;;18.32;36.16
13011;BME280;6786;57.632;11.962;2023-01-31T12:18:43;99197.47;;;18.93;36.17
13011;BME280;6786;57.632;11.962;2023-01-31T12:21:29;99109.44;;;18.36;36.06
13011;BME280;6786;57.632;11.962;2023-01-31T12:24:06;99191.25;;;18.93;36.13
13011;BME280;6786;57.632;11.962;2023-01-31T12:26:44;99174.38;;;18.92;36.20
13011;BME280;6786;57.632;11.962;2023-01-31T12:29:25;99136.16;;;18.60;36.27
13011;BME280;6786;57.632;11.962;2023-01-31T12:32:17;98980.50;;;17.86;36.13
13011;BME280;6786;57.632;11.962;2023-01-31T12:35:06;99169.84;;;18.93;36.17
13011;BME280;6786;57.632;11.962;2023-01-31T12:37:51;99155.47;;;18.94;36.20
13011;BME280;6786;57.632;11.962;2023-01-31T12:40:35;99137.72;;;18.93;36.26
13011;BME280;6786;57.632;11.962;2023-01-31T12:43:19;99138.75;;;18.92;36.19
13011;BME280;6786;57.632;11.962;2023-01-31T12:45:59;99134.06;;;18.94;36.22
13011;BME280;6786;57.632;11.962;2023-01-31T12:49:03;99138.56;;;18.93;36.28
13011;BME280;6786;57.632;11.962;2023-01-31T12:51:42;99129.69;;;18.93;36.26
13011;BME280;6786;57.632;11.962;2023-01-31T12:54:24;99112.66;;;18.94;36.21
13011;BME280;6786;57.632;11.962;2023-01-31T12:57:16;99103.94;;;18.92;36.24
13011;BME280;6786;57.632;11.962;2023-01-31T12:59:54;98999.47;;;18.39;36.45
13011;BME280;6786;57.632;11.962;2023-01-31T13:02:39;99084.53;;;18.90;36.24
13011;BME280;6786;57.632;11.962;2023-01-31T13:05:15;99074.50;;;18.92;36.37
13011;BME280;6786;57.632;11.962;2023-01-31T13:07:48;99065.63;;;18.91;36.40
13011;BME280;6786;57.632;11.962;2023-01-31T13:10:28;99052.06;;;18.93;36.27
13011;BME280;6786;57.632;11.962;2023-01-31T13:13:01;99046.72;;;18.93;36.38
13011;BME280;6786;57.632;11.962;2023-01-31T13:15:37;99043.03;;;18.94;36.35
13011;BME280;6786;57.632;11.962;2023-01-31T13:18:09;99043.03;;;18.94;36.33
13011;BME280;6786;57.632;11.962;2023-01-31T13:20:42;99019.31;;;18.91;36.32
13011;BME280;6786;57.632;11.962;2023-01-31T13:23:22;99026.97;;;18.94;36.28
13011;BME280;6786;57.632;11.962;2023-01-31T13:26:01;99010.91;;;18.94;36.35
13011;BME280;6786;57.632;11.962;2023-01-31T13:28:35;99010.06;;;18.93;36.32
13011;BME280;6786;57.632;11.962;2023-01-31T13:31:08;99010.06;;;18.93;36.22
13011;BME280;6786;57.632;11.962;2023-01-31T13:33:42;98987.81;;;18.93;36.34
13011;BME280;6786;57.632;11.962;2023-01-31T13:36:22;98906.16;;;18.44;36.42